Time;durP1;ratioP1;P1;durP2;ratioP2;P2;SDS_P1;SDS_P2;PMS_P1;PMS_P2;Temp;Humidity;BMP_temperature;BMP_pressure;BME280_temperature;BME280_humidity;BME280_pressure;Samples;Min_cycle;Max_cycle;Signal;HPM_P1;HPM_P2
2024/02/10 00:00:06;;;;;;;18.08;7.22;;;;;;;6.44;72.64;98033.91;5055916;28;20416;-79
2024/02/10 00:02:31;;;;;;;10.23;6.40;;;;;;;6.14;73.76;97979.31;5055707;28;20048;-77
2024/02/10 00:04:57;;;;;;;27.55;10.05;;;;;;;6.32;72.70;97996.16;5057222;28;20409;-76
2024/02/10 00:07:22;;;;;;;18.08;7.32;;;;;;;6.50;73.25;98023.22;5064845;28;20052;-78
2024/02/10 00:09:48;;;;;;;12.50;6.15;;;;;;;6.69;72.17;98029.84;5059328;28;20032;-77
2024/02/10 00:12:13;;;;;;;11.45;6.40;;;;;;;6.35;72.54;97989.81;5059041;28;20028;-79
2024/02/10 00:14:41;;;;;;;15.25;7.05;;;;;;;6.24;73.12;97983.78;5077011;28;20032;-77
2024/02/10 00:17:09;;;;;;;11.60;6.78;;;;;;;6.71;72.82;98057.63;5075749;28;20043;-77
2024/02/10 00:19:36;;;;;;;16.65;6.93;;;;;;;6.47;73.31;98035.78;5077257;28;20524;-79
2024/02/10 00:22:06;;;;;;;27.98;11.55;;;;;;;6.33;73.54;98032.59;5077092;28;20073;-77
2024/02/10 00:24:33;;;;;;;15.68;7.82;;;;;;;6.26;72.76;98057.44;5077071;28;20031;-77
2024/02/10 00:27:01;;;;;;;15.18;7.47;;;;;;;5.95;73.60;98062.34;5072180;28;20032;-76
2024/02/10 00:29:27;;;;;;;14.65;7.50;;;;;;;5.59;73.17;98032.06;5055757;28;20117;-78
2024/02/10 00:31:53;;;;;;;14.60;6.97;;;;;;;5.20;74.09;97995.16;5073904;28;20028;-77
2024/02/10 00:34:22;;;;;;;14.13;7.18;;;;;;;4.98;75.27;97971.31;5072853;28;20027;-77
2024/02/10 00:36:48;;;;;;;15.40;7.10;;;;;;;5.15;75.23;98027.72;5072495;28;20032;-78
2024/02/10 00:39:13;;;;;;;10.40;6.60;;;;;;;4.90;75.99;98008.97;5073661;28;20480;-78
2024/02/10 00:41:39;;;;;;;15.02;6.88;;;;;;;4.72;76.58;98003.00;5071913;28;20060;-76
2024/02/10 00:44:04;;;;;;;15.93;7.10;;;;;;;4.45;77.04;97973.72;5072322;28;20063;-77
2024/02/10 00:46:31;;;;;;;15.82;6.35;;;;;;;4.83;77.71;98029.00;5055617;28;20417;-77
2024/02/10 00:48:57;;;;;;;16.05;6.70;;;;;;;4.57;77.91;97983.31;5055749;28;20025;-78
2024/02/10 00:51:22;;;;;;;11.85;6.35;;;;;;;4.65;78.58;98011.31;5055219;28;20044;-78
2024/02/10 00:53:48;;;;;;;16.75;6.43;;;;;;;4.31;79.22;97973.13;5073470;28;20086;-78
2024/02/10 00:56:13;;;;;;;10.60;6.32;;;;;;;4.52;79.32;98005.66;5055717;28;20484;-77
2024/02/10 00:58:44;;;;;;;14.63;6.47;;;;;;;4.69;78.55;98036.69;5072025;28;20043;-78
2024/02/10 01:01:20;;;;;;;15.75;7.28;;;;;;;4.65;79.74;98020.28;5071992;28;20032;-78
2024/02/10 01:03:46;;;;;;;16.35;7.43;;;;;;;4.69;79.87;98021.03;5072175;28;20036;-78
2024/02/10 01:06:15;;;;;;;67.03;19.55;;;;;;;4.69;79.50;98001.09;5055653;28;20119;-76
2024/02/10 01:08:46;;;;;;;47.67;13.95;;;;;;;4.64;79.84;97983.19;5068487;28;20060;-79
2024/02/10 01:11:15;;;;;;;21.50;7.72;;;;;;;5.00;80.67;98043.63;5051762;28;20032;-78
2024/02/10 01:13:45;;;;;;;12.02;6.28;;;;;;;4.83;81.95;97990.69;5051810;28;20033;-78
2024/02/10 01:16:15;;;;;;;14.45;6.40;;;;;;;5.07;80.29;97991.47;5040581;28;20032;-78
2024/02/10 01:18:45;;;;;;;14.05;7.15;;;;;;;4.64;79.64;97952.34;5051948;28;20033;-78
2024/02/10 01:21:10;;;;;;;14.82;6.45;;;;;;;4.33;79.73;97951.63;5053071;28;20023;-76
2024/02/10 01:23:42;;;;;;;12.38;6.50;;;;;;;4.98;77.83;98065.16;5051410;28;20033;-77
2024/02/10 01:26:08;;;;;;;12.23;6.78;;;;;;;4.59;79.04;98043.84;5051682;28;20033;-79
2024/02/10 01:28:35;;;;;;;10.23;5.97;;;;;;;4.33;80.76;98025.47;5051585;28;20033;-78
2024/02/10 01:31:05;;;;;;;13.95;6.68;;;;;;;4.45;81.87;98033.09;5057033;28;20017;-78
2024/02/10 01:33:31;;;;;;;13.05;6.15;;;;;;;4.16;81.75;97988.94;5051190;28;20082;-78
2024/02/10 01:35:59;;;;;;;12.45;6.90;;;;;;;4.51;82.05;98004.09;5051212;28;20021;-77
2024/02/10 01:38:25;;;;;;;15.73;6.65;;;;;;;4.21;83.15;97949.47;5049834;28;20024;-77
2024/02/10 01:40:51;;;;;;;20.48;9.70;;;;;;;4.64;83.29;98013.28;5052789;28;20060;-79
2024/02/10 01:43:16;;;;;;;12.68;7.13;;;;;;;4.62;83.60;97990.25;5051096;28;20485;-78
2024/02/10 01:45:42;;;;;;;11.90;6.25;;;;;;;4.75;84.56;97986.53;5067770;28;20039;-77
2024/02/10 01:48:08;;;;;;;10.00;5.65;;;;;;;4.89;82.84;97937.03;5050914;28;20027;-78
2024/02/10 01:50:37;;;;;;;10.90;5.22;;;;;;;5.36;82.26;97977.31;5067668;28;20033;-77
2024/02/10 01:53:04;;;;;;;12.07;5.38;;;;;;;5.37;80.98;97965.91;5050967;28;20053;-77
2024/02/10 01:55:30;;;;;;;10.15;5.13;;;;;;;5.89;81.13;98017.44;5052408;28;20028;-77
2024/02/10 01:58:00;;;;;;;14.45;7.32;;;;;;;6.04;78.98;98003.00;5050947;28;20036;-78
2024/02/10 02:00:26;;;;;;;10.20;5.53;;;;;;;5.98;78.06;97996.47;5058243;28;20029;-78
2024/02/10 02:02:55;;;;;;;13.07;5.35;;;;;;;5.68;77.45;97953.56;5052143;28;20021;-77
2024/02/10 02:05:21;;;;;;;11.02;5.97;;;;;;;5.59;77.80;97966.31;5050876;28;20116;-77
2024/02/10 02:07:50;;;;;;;9.73;5.60;;;;;;;5.47;78.15;97954.00;5050613;28;20255;-78
2024/02/10 02:10:20;;;;;;;11.82;5.70;;;;;;;5.37;76.79;97959.66;5050832;28;20040;-77
2024/02/10 02:12:50;;;;;;;10.15;5.18;;;;;;;5.32;77.72;97985.56;5051854;28;20179;-78
2024/02/10 02:15:20;;;;;;;16.00;6.25;;;;;;;4.86;78.61;97965.25;5050541;28;20526;-77
2024/02/10 02:17:47;;;;;;;46.53;13.85;;;;;;;4.85;82.19;97984.81;5050340;28;20051;-79
2024/02/10 02:20:13;;;;;;;12.77;6.45;;;;;;;5.04;81.44;97986.06;5050440;28;20040;-77
2024/02/10 02:22:49;;;;;;;11.70;6.30;;;;;;;4.77;80.94;97945.84;5067254;28;20033;-77
2024/02/10 02:25:16;;;;;;;12.07;5.97;;;;;;;4.88;80.43;97967.59;5050495;28;20044;-78
2024/02/10 02:27:41;;;;;;;10.65;6.32;;;;;;;4.67;81.28;97965.94;5051652;28;20416;-79
2024/02/10 02:30:07;;;;;;;12.23;6.28;;;;;;;4.62;81.77;97971.13;5051579;28;20021;-77
2024/02/10 02:32:35;;;;;;;8.95;5.20;;;;;;;4.42;81.65;97980.00;5050366;28;20033;-78
2024/02/10 02:35:10;;;;;;;8.85;5.30;;;;;;;4.13;82.19;97995.25;5050154;28;20047;-79
2024/02/10 02:37:40;;;;;;;9.65;4.97;;;;;;;4.00;84.07;98019.63;5050095;28;20028;-77
2024/02/10 02:40:07;;;;;;;8.90;5.30;;;;;;;4.04;84.62;98003.16;5050164;28;20029;-77
2024/02/10 02:42:33;;;;;;;9.18;4.80;;;;;;;3.72;86.61;97991.88;5050235;28;20075;-78
2024/02/10 02:45:03;;;;;;;10.43;5.20;;;;;;;3.66;88.35;97994.28;5049718;28;20113;-76
2024/02/10 02:47:29;;;;;;;9.90;5.10;;;;;;;3.36;89.07;97969.63;5050187;28;20214;-77
2024/02/10 02:49:55;;;;;;;10.32;5.60;;;;;;;3.84;92.68;98021.38;5062882;28;20160;-77
2024/02/10 02:52:20;;;;;;;10.65;5.90;;;;;;;3.41;93.82;97929.00;5051313;28;20082;-77
2024/02/10 02:54:47;;;;;;;15.10;6.53;;;;;;;3.95;94.52;97997.44;5050862;28;20408;-77
2024/02/10 02:57:18;;;;;;;14.77;5.68;;;;;;;3.95;94.49;97953.72;5049949;28;20120;-77
2024/02/10 02:59:46;;;;;;;12.02;5.55;;;;;;;4.21;93.33;97961.19;5050260;28;20028;-79
2024/02/10 03:02:12;;;;;;;12.82;5.38;;;;;;;4.66;92.34;98005.44;5049983;28;20086;-78
2024/02/10 03:04:42;;;;;;;12.40;5.30;;;;;;;4.81;91.75;98008.75;5049836;28;20548;-77
2024/02/10 03:07:08;;;;;;;9.18;4.93;;;;;;;5.01;89.77;97989.63;5057212;28;20519;-78
2024/02/10 03:09:34;;;;;;;11.68;4.95;;;;;;;5.48;88.05;98026.78;5069809;28;20488;-80
2024/02/10 03:11:59;;;;;;;10.55;4.70;;;;;;;5.42;86.38;97990.09;5069727;28;20032;-81
2024/02/10 03:14:25;;;;;;;6.90;4.43;;;;;;;5.44;84.96;97960.31;5070864;28;20036;-78
2024/02/10 03:16:51;;;;;;;10.82;5.03;;;;;;;5.78;82.63;97960.06;5069957;28;20021;-76
2024/02/10 03:19:17;;;;;;;7.95;4.30;;;;;;;6.11;81.25;97969.94;5069540;28;20024;-78
2024/02/10 03:21:42;;;;;;;7.65;4.53;;;;;;;6.18;80.03;97957.28;5070917;28;20472;-77
2024/02/10 03:24:08;;;;;;;11.00;4.68;;;;;;;6.24;78.12;97948.13;5070816;28;20033;-76
2024/02/10 03:26:37;;;;;;;5.85;3.78;;;;;;;6.45;77.58;97969.59;5069582;28;20386;-76
2024/02/10 03:29:06;;;;;;;10.55;4.28;;;;;;;6.74;76.85;97999.91;5052749;28;20480;-78
2024/02/10 03:31:32;;;;;;;8.82;3.80;;;;;;;6.45;77.00;97980.56;5069722;28;20028;-77
2024/02/10 03:33:58;;;;;;;9.20;3.90;;;;;;;6.63;76.64;98017.84;5057564;28;20032;-79
2024/02/10 03:36:24;;;;;;;8.18;3.97;;;;;;;6.33;76.25;97972.25;5069207;28;20074;-76
2024/02/10 03:38:53;;;;;;;7.60;4.40;;;;;;;6.48;76.73;98006.38;5070704;28;20070;-77
2024/02/10 03:41:19;;;;;;;9.70;4.93;;;;;;;6.22;77.04;97986.16;5070477;28;20029;-75
2024/02/10 03:43:45;;;;;;;9.85;5.10;;;;;;;6.12;78.27;98006.38;5069219;28;20025;-77
2024/02/10 03:46:13;;;;;;;10.00;5.65;;;;;;;5.61;79.19;97975.63;5069139;28;20104;-77
2024/02/10 03:48:39;;;;;;;10.50;5.45;;;;;;;5.90;78.71;98036.22;5069475;28;20112;-76
2024/02/10 03:51:06;;;;;;;10.05;4.65;;;;;;;5.63;79.73;98006.13;5069159;28;20388;-78
2024/02/10 03:53:32;;;;;;;21.60;9.73;;;;;;;5.60;79.58;98017.94;5070459;28;20039;-78
2024/02/10 03:55:58;;;;;;;15.98;6.70;;;;;;;5.10;80.95;97985.19;5068937;28;20115;-77
2024/02/10 03:58:25;;;;;;;10.85;4.53;;;;;;;5.35;82.11;98041.50;5070489;28;20151;-76
2024/02/10 04:00:50;;;;;;;8.65;5.35;;;;;;;5.27;83.98;98046.31;5069327;28;20024;-76
2024/02/10 04:03:17;;;;;;;11.15;5.07;;;;;;;5.15;85.33;98033.22;5074405;28;20037;-77
2024/02/10 04:05:46;;;;;;;9.05;4.78;;;;;;;5.39;85.18;98036.72;5074161;28;20047;-76
2024/02/10 04:08:11;;;;;;;9.93;4.68;;;;;;;5.28;83.95;98006.78;5073831;28;20533;-76
2024/02/10 04:10:37;;;;;;;8.95;4.50;;;;;;;5.63;82.27;98019.84;5072849;28;20025;-77
2024/02/10 04:13:05;;;;;;;22.92;8.05;;;;;;;5.98;80.93;98028.59;5056172;28;20073;-77
2024/02/10 04:15:31;;;;;;;17.02;6.18;;;;;;;6.03;80.63;98017.13;5072701;28;20029;-75
2024/02/10 04:17:57;;;;;;;17.95;7.20;;;;;;;5.97;79.63;97989.44;5056029;28;20508;-76
2024/02/10 04:20:25;;;;;;;22.42;8.82;;;;;;;6.43;77.22;98010.41;5073774;28;20032;-78
2024/02/10 04:22:50;;;;;;;20.20;8.45;;;;;;;6.21;75.91;97953.72;5073758;28;20498;-77
2024/02/10 04:25:16;;;;;;;11.38;5.60;;;;;;;6.58;76.27;98007.34;5073136;28;20033;-77
2024/02/10 04:27:42;;;;;;;9.00;5.03;;;;;;;6.63;75.80;97982.91;5056048;28;20032;-77
2024/02/10 04:30:10;;;;;;;11.65;4.78;;;;;;;6.66;74.95;97986.78;5073871;28;20074;-78
2024/02/10 04:32:46;;;;;;;7.50;3.80;;;;;;;6.88;75.18;98013.28;5072475;28;20036;-77
2024/02/10 04:35:12;;;;;;;11.02;4.30;;;;;;;6.77;74.77;97998.28;5072165;28;20093;-76
2024/02/10 04:37:38;;;;;;;6.13;3.88;;;;;;;6.54;74.96;97988.22;5073682;28;20504;-77
2024/02/10 04:40:04;;;;;;;8.65;4.10;;;;;;;5.87;75.92;97886.25;5055675;28;20029;-77
2024/02/10 04:42:31;;;;;;;7.20;4.30;;;;;;;6.49;75.31;97980.50;5072297;28;20530;-79
2024/02/10 04:44:59;;;;;;;9.07;4.57;;;;;;;6.47;75.66;97982.88;5073612;28;20021;-77
2024/02/10 04:47:24;;;;;;;;;;;;;;;6.21;75.90;98006.56;5074139;28;20028;-76
2024/02/10 04:49:50;;;;;;;10.80;4.70;;;;;;;5.56;77.67;97962.44;5055180;28;19965;-77
2024/02/10 04:52:18;;;;;;;8.60;5.35;;;;;;;5.28;78.91;97943.78;5055563;28;20115;-78
2024/02/10 04:54:43;;;;;;;;;;;;;;;5.73;80.05;98018.84;5072567;28;20024;-75
2024/02/10 04:57:09;;;;;;;7.25;4.15;;;;;;;5.54;80.17;98013.38;5072292;28;20323;-76
2024/02/10 04:59:34;;;;;;;12.25;5.95;;;;;;;5.63;80.93;98033.53;5055128;28;20044;-77
2024/02/10 05:02:01;;;;;;;14.45;5.88;;;;;;;5.49;82.01;98027.53;5055359;28;20419;-78
2024/02/10 05:04:26;;;;;;;16.23;6.53;;;;;;;5.15;82.40;97978.44;5071652;28;20032;-77
2024/02/10 05:06:51;;;;;;;14.48;6.68;;;;;;;5.14;83.28;97985.88;5072844;28;20060;-76
2024/02/10 05:09:17;;;;;;;8.43;4.50;;;;;;;5.14;84.65;97985.88;5071881;28;20039;-77
2024/02/10 05:11:42;;;;;;;9.27;4.07;;;;;;;5.20;86.37;97991.66;5071555;28;20094;-76
2024/02/10 05:14:09;;;;;;;6.93;3.78;;;;;;;5.54;84.84;97989.50;5072679;28;20498;-76
2024/02/10 05:16:35;;;;;;;9.30;4.70;;;;;;;5.99;82.49;98030.16;5071539;28;20148;-76
2024/02/10 05:19:00;;;;;;;14.15;6.13;;;;;;;6.00;80.42;97979.59;5054915;28;20512;-79
2024/02/10 05:21:28;;;;;;;11.02;5.95;;;;;;;6.31;78.57;97994.63;5054948;28;20119;-77
2024/02/10 05:23:54;;;;;;;8.40;4.28;;;;;;;6.09;76.74;97903.00;5071886;28;20031;-78
2024/02/10 05:26:19;;;;;;;20.90;7.93;;;;;;;6.61;76.29;97959.84;5071548;28;20103;-76
2024/02/10 05:28:47;;;;;;;22.48;8.48;;;;;;;6.91;75.26;97973.22;5072533;28;20035;-77
2024/02/10 05:31:12;;;;;;;;;;;;;;;7.07;74.87;97981.44;5071810;28;20046;-77
2024/02/10 05:33:42;;;;;;;29.52;11.02;;;;;;;6.79;74.06;97936.25;5070895;28;20435;-77
2024/02/10 05:36:08;;;;;;;14.13;5.80;;;;;;;6.62;74.31;97903.75;5071613;28;20565;-79
2024/02/10 05:38:33;;;;;;;5.85;3.65;;;;;;;7.09;74.35;97976.31;5055444;28;20028;-77
2024/02/10 05:41:04;;;;;;;11.00;4.80;;;;;;;6.82;74.01;97937.34;5054506;28;20020;-77
2024/02/10 05:43:30;;;;;;;8.02;4.25;;;;;;;6.99;74.46;97977.34;5071088;28;20473;-78
2024/02/10 05:45:55;;;;;;;6.63;4.20;;;;;;;6.99;75.10;98002.06;5071193;28;20032;-77
2024/02/10 05:48:29;;;;;;;9.18;5.05;;;;;;;6.65;76.49;98029.13;5070817;28;20086;-77
2024/02/10 05:50:55;;;;;;;8.80;5.22;;;;;;;6.38;77.83;98016.41;5054590;28;20021;-76
2024/02/10 05:53:23;;;;;;;17.40;6.93;;;;;;;6.25;78.93;98029.22;5054195;28;20021;-77
2024/02/10 05:55:48;;;;;;;15.35;7.32;;;;;;;6.16;78.22;98004.31;5070917;28;20039;-76
2024/02/10 05:58:14;;;;;;;13.98;5.50;;;;;;;6.02;77.64;97990.94;5070689;28;20033;-76
2024/02/10 06:00:40;;;;;;;12.60;6.57;;;;;;;6.24;77.81;98024.94;5070555;28;20848;-77
2024/02/10 06:03:05;;;;;;;10.13;5.40;;;;;;;5.99;78.25;98011.72;5054130;28;20107;-77
2024/02/10 06:05:31;;;;;;;27.92;10.40;;;;;;;5.98;77.91;98006.66;5071836;28;20127;-76
2024/02/10 06:07:56;;;;;;;16.65;7.43;;;;;;;6.28;78.93;98061.28;5071572;28;20037;-76
2024/02/10 06:10:22;;;;;;;13.27;6.80;;;;;;;6.13;80.45;98027.13;5070863;28;20025;-77
2024/02/10 06:12:49;;;;;;;13.85;6.03;;;;;;;6.57;79.83;98044.97;5053464;28;20113;-77
2024/02/10 06:15:17;;;;;;;19.20;7.23;;;;;;;6.67;80.25;98052.22;5070555;28;20504;-76
2024/02/10 06:17:48;;;;;;;13.82;7.05;;;;;;;6.54;80.19;98004.69;5070694;28;20036;-77
2024/02/10 06:20:14;;;;;;;11.45;6.90;;;;;;;7.09;79.88;98063.44;5053473;28;20024;-76
2024/02/10 06:22:47;;;;;;;18.35;8.88;;;;;;;7.19;78.23;98035.69;5053823;28;20012;-78
2024/02/10 06:25:13;;;;;;;34.75;15.68;;;;;;;7.41;75.86;98041.47;5052770;28;20055;-77
2024/02/10 06:27:45;;;;;;;26.35;12.45;;;;;;;7.18;76.10;97995.69;5071312;28;20052;-76
2024/02/10 06:30:14;;;;;;;26.90;13.45;;;;;;;7.47;75.46;98008.72;5053703;28;20101;-77
2024/02/10 06:32:40;;;;;;;18.30;11.32;;;;;;;7.56;75.81;98026.13;5071619;28;20492;-77
2024/02/10 06:35:08;;;;;;;20.02;10.00;;;;;;;7.61;75.94;98008.34;5071149;28;20060;-76
2024/02/10 06:37:34;;;;;;;;;;;;;;;8.21;74.47;98060.91;5070233;28;20033;-78
2024/02/10 06:40:00;;;;;;;30.95;17.00;;;;;;;8.01;71.98;98056.34;5071074;28;19973;-76
2024/02/10 06:42:34;;;;;;;25.00;12.77;;;;;;;7.73;72.86;98024.09;5071305;28;20439;-76
2024/02/10 06:45:00;;;;;;;24.42;11.90;;;;;;;7.43;71.72;97967.56;5069950;28;20082;-77
2024/02/10 06:47:25;;;;;;;23.30;11.93;;;;;;;8.10;70.05;98030.94;5053099;28;20032;-78
2024/02/10 06:49:51;;;;;;;27.10;14.20;;;;;;;8.24;70.01;98032.53;5053382;28;20039;-77
2024/02/10 06:52:16;;;;;;;41.20;16.80;;;;;;;7.90;71.46;98022.06;5071221;28;20071;-78
2024/02/10 06:54:42;;;;;;;21.30;11.48;;;;;;;7.44;74.25;98010.34;5053132;28;20020;-78
2024/02/10 06:57:08;;;;;;;21.38;11.27;;;;;;;7.01;76.35;98013.38;5070108;28;20021;-77
2024/02/10 06:59:34;;;;;;;18.02;9.50;;;;;;;7.27;77.71;98039.81;5069917;28;20021;-78
2024/02/10 07:01:59;;;;;;;15.52;8.25;;;;;;;7.40;76.60;98061.88;5071322;28;20031;-77
2024/02/10 07:04:24;;;;;;;15.88;8.15;;;;;;;7.56;75.83;98059.13;5053465;28;20036;-77
2024/02/10 07:06:57;;;;;;;11.73;6.97;;;;;;;7.47;77.26;98058.97;5069356;28;20048;-78
2024/02/10 07:09:23;;;;;;;21.45;8.35;;;;;;;7.58;78.20;98080.69;5069444;28;20411;-78
2024/02/10 07:11:51;;;;;;;28.13;9.10;;;;;;;7.30;77.58;98068.41;5070864;28;20032;-78
2024/02/10 07:14:18;;;;;;;26.20;8.20;;;;;;;7.45;78.06;98102.59;5069890;28;20107;-78
2024/02/10 07:16:44;;;;;;;13.48;8.52;;;;;;;7.52;77.24;98072.19;5069872;28;20028;-77
2024/02/10 07:19:11;;;;;;;18.85;10.25;;;;;;;7.39;77.03;98026.59;5070757;28;20450;-79
2024/02/10 07:21:37;;;;;;;16.17;10.80;;;;;;;7.56;76.90;98041.84;5069831;28;20086;-78
2024/02/10 07:24:05;;;;;;;22.65;11.68;;;;;;;8.02;75.71;98068.88;5070138;28;20185;-79
2024/02/10 07:26:34;;;;;;;19.55;11.38;;;;;;;7.72;73.80;98044.56;5070757;28;20547;-77
2024/02/10 07:29:01;;;;;;;25.42;14.65;;;;;;;8.28;73.83;98088.22;5052683;28;20040;-77
2024/02/10 07:31:26;;;;;;;17.25;11.30;;;;;;;8.23;72.58;98095.06;5069240;28;20031;-76
2024/02/10 07:34:02;;;;;;;17.45;10.02;;;;;;;8.37;71.55;98033.38;5070475;28;20090;-77
2024/02/10 07:36:35;;;;;;;31.58;18.20;;;;;;;9.32;66.17;98095.75;5072333;28;20039;-79
2024/02/10 07:39:07;;;;;;;24.20;12.88;;;;;;;9.29;64.89;98093.88;5072890;28;20024;-76
2024/02/10 07:41:38;;;;;;;23.40;11.02;;;;;;;9.69;63.53;98108.72;5073356;28;20450;-76
2024/02/10 07:44:05;;;;;;;30.60;11.85;;;;;;;9.37;62.19;98071.16;5055126;28;20043;-77
2024/02/10 07:46:34;;;;;;;19.95;10.73;;;;;;;9.41;64.73;98112.41;5056822;28;20029;-79
2024/02/10 07:49:04;;;;;;;41.90;16.63;;;;;;;9.51;65.80;98063.66;5074402;28;20029;-79
2024/02/10 07:51:30;;;;;;;30.73;13.00;;;;;;;10.15;63.32;98126.47;5072956;28;20032;-78
2024/02/10 07:53:59;;;;;;;24.88;10.27;;;;;;;10.14;62.50;98108.34;5056726;28;20529;-80
2024/02/10 07:56:33;;;;;;;23.48;12.82;;;;;;;10.37;63.78;98134.78;5073250;28;20090;-77
2024/02/10 07:59:00;;;;;;;22.08;12.13;;;;;;;10.33;62.14;98100.25;5073224;28;20109;-79
2024/02/10 08:01:26;;;;;;;27.63;11.55;;;;;;;10.26;62.88;98108.78;5072598;28;20036;-78
2024/02/10 08:03:56;;;;;;;20.45;10.00;;;;;;;10.47;61.04;98078.41;5074423;28;20025;-78
2024/02/10 08:06:26;;;;;;;14.50;9.07;;;;;;;10.49;59.64;98045.56;5074431;28;20036;-77
2024/02/10 08:09:01;;;;;;;14.70;8.98;;;;;;;11.03;58.90;98124.44;5072653;28;20075;-78
2024/02/10 08:11:28;;;;;;;15.50;8.50;;;;;;;10.91;58.96;98111.53;5056165;28;20637;-80
2024/02/10 08:13:57;;;;;;;17.23;9.15;;;;;;;10.16;58.07;97991.97;5072269;28;20021;-79
2024/02/10 08:16:28;;;;;;;17.67;7.75;;;;;;;10.85;58.12;98089.19;5072977;28;20023;-78
2024/02/10 08:18:54;;;;;;;15.18;7.70;;;;;;;10.71;58.54;98080.69;5074373;28;20506;-79
2024/02/10 08:21:21;;;;;;;;;;;;;;;10.79;58.04;98106.84;5056057;28;20058;-79
2024/02/10 08:23:52;;;;;;;;;;;;;;;10.61;58.43;98105.50;5072868;28;19966;-79
2024/02/10 08:26:18;;;;;;;;;;;;;;;10.39;58.81;98110.25;5071615;28;19957;-78
2024/02/10 08:28:55;;;;;;;;;;;;;;;10.71;57.71;98109.09;5073945;28;20408;-76
2024/02/10 08:31:21;;;;;;;;;;;;;;;11.22;56.11;98115.03;5072661;28;19916;-78
2024/02/10 08:33:49;;;;;;;;;;;;;;;11.42;54.40;98109.09;5073407;28;19917;-77
2024/02/10 08:36:16;;;;;;;;;;;;;;;11.63;54.24;98110.25;5071399;28;19908;-77
2024/02/10 08:38:41;;;;;;;;;;;;;;;11.80;53.18;98136.44;5073019;28;19909;-77
2024/02/10 08:41:07;;;;;;;;;;;;;;;12.11;51.88;98128.81;5071456;28;19915;-77
2024/02/10 08:43:32;;;;;;;;;;;;;;;12.44;50.95;98144.81;5073233;28;19913;-77
2024/02/10 08:46:00;;;;;;;;;;;;;;;12.51;50.02;98136.19;5072025;28;20007;-77
2024/02/10 08:48:26;;;;;;;;;;;;;;;12.38;51.33;98128.03;5054702;28;20007;-77
2024/02/10 08:50:51;;;;;;;;;;;;;;;12.36;50.13;98132.47;5072116;28;20409;-77
2024/02/10 08:53:16;;;;;;;;;;;;;;;12.23;50.77;98127.91;5073214;28;20016;-78
2024/02/10 08:55:42;;;;;;;;;;;;;;;12.31;50.67;98130.34;5073758;28;19916;-77
2024/02/10 08:58:08;;;;;;;;;;;;;;;12.24;50.12;98137.72;5072213;28;20395;-77
2024/02/10 09:00:34;;;;;;;;;;;;;;;12.15;50.55;98139.72;5072296;28;19958;-78
2024/02/10 09:02:59;;;;;;;;;;;;;;;12.10;50.63;98126.50;5071777;28;19908;-77
2024/02/10 09:05:26;;;;;;;;;;;;;;;11.95;50.97;98128.31;5073776;28;20296;-77
2024/02/10 09:07:51;;;;;;;;;;;;;;;12.18;50.77;98119.41;5073095;28;20029;-78
2024/02/10 09:10:17;;;;;;;;;;;;;;;12.32;50.55;98126.34;5072208;28;20348;-77
2024/02/10 09:12:44;;;;;;;;;;;;;;;12.53;49.05;98125.41;5071882;28;20015;-77
2024/02/10 09:15:09;;;;;;;;;;;;;;;12.41;49.91;98129.88;5073240;28;20455;-77
2024/02/10 09:17:34;;;;;;;;;;;;;;;12.44;49.81;98131.72;5073410;28;19919;-78
2024/02/10 09:20:00;;;;;;;;;;;;;;;12.68;49.63;98133.84;5073343;28;19908;-78
2024/02/10 09:22:25;;;;;;;;;;;;;;;12.79;49.70;98140.44;5072831;28;20400;-77
2024/02/10 09:24:53;;;;;;;;;;;;;;;12.99;49.86;98146.28;5071936;28;19908;-77
2024/02/10 09:27:19;;;;;;;;;;;;;;;12.73;48.52;98136.00;5071250;28;20395;-78
2024/02/10 09:29:46;;;;;;;;;;;;;;;12.53;49.79;98139.28;5071853;28;19908;-77
2024/02/10 09:32:11;;;;;;;;;;;;;;;12.90;48.88;98140.72;5071515;28;20030;-77
2024/02/10 09:34:37;;;;;;;;;;;;;;;12.93;48.62;98131.50;5073208;28;20406;-77
2024/02/10 09:37:03;;;;;;;;;;;;;;;12.54;49.42;98132.47;5072798;28;20295;-77
2024/02/10 09:39:28;;;;;;;;;;;;;;;12.64;50.76;98128.47;5071527;28;19908;-77
2024/02/10 09:41:59;;;;;;;;;;;;;;;12.72;50.09;98135.22;5071387;28;20296;-78
2024/02/10 09:44:24;;;;;;;;;;;;;;;12.97;48.70;98142.41;5072895;28;19908;-77
2024/02/10 09:46:53;;;;;;;;;;;;;;;13.29;49.12;98155.59;5071507;28;19908;-77
2024/02/10 09:49:19;;;;;;;;;;;;;;;13.24;47.26;98144.38;5071492;28;20311;-78
2024/02/10 09:51:45;;;;;;;;;;;;;;;13.34;48.22;98148.66;5070998;28;19908;-78
2024/02/10 09:54:13;;;;;;;;;;;;;;;13.29;48.54;98143.75;5071205;28;19916;-77
2024/02/10 09:56:38;;;;;;;;;;;;;;;13.22;47.48;98142.06;5070935;28;20003;-77
2024/02/10 09:59:10;;;;;;;;;;;;;;;13.32;46.96;98140.78;5070367;28;20007;-78
2024/02/10 10:01:37;;;;;;;;;;;;;;;13.23;48.62;98134.50;5059602;28;19913;-77
2024/02/10 10:04:03;;;;;;;;;;;;;;;13.13;48.55;98131.00;5070888;28;19919;-78
2024/02/10 10:06:29;;;;;;;;;;;;;;;13.58;47.28;98129.25;5070635;28;19912;-78
2024/02/10 10:08:54;;;;;;;;;;;;;;;13.22;47.06;98128.19;5070934;28;20015;-77
2024/02/10 10:11:22;;;;;;;;;;;;;;;12.98;47.74;98128.09;5071138;28;19955;-78
2024/02/10 10:13:48;;;;;;;;;;;;;;;12.99;46.99;98126.84;5054269;28;19969;-78
2024/02/10 10:16:13;;;;;;;;;;;;;;;13.61;46.37;98122.78;5072155;28;19910;-78
2024/02/10 10:18:39;;;;;;;;;;;;;;;13.85;45.51;98107.69;5070807;28;19931;-78
2024/02/10 10:21:05;;;;;;;;;;;;;;;13.94;45.14;98106.06;5050877;28;19927;-77
2024/02/10 10:23:33;;;;;;;;;;;;;;;13.81;44.59;98104.28;5065395;28;20272;-78
2024/02/10 10:25:59;;;;;;;;;;;;;;;13.94;44.38;98097.72;5070624;28;19995;-77
2024/02/10 10:28:24;;;;;;;;;;;;;;;14.33;44.81;98101.31;5071621;28;20003;-77
2024/02/10 10:30:50;;;;;;;;;;;;;;;14.34;44.68;98100.84;5071003;28;19916;-78
2024/02/10 10:33:20;;;;;;;;;;;;;;;14.51;43.73;98101.94;5070615;28;19944;-78
2024/02/10 10:35:46;;;;;;;;;;;;;;;14.41;43.61;98103.25;5072031;28;19908;-78
2024/02/10 10:38:12;;;;;;;;;;;;;;;14.68;42.66;98104.25;5070991;28;20299;-77
2024/02/10 10:40:38;;;;;;;;;;;;;;;14.36;43.54;98097.56;5070448;28;19912;-79
2024/02/10 10:43:10;;;;;;;;;;;;;;;14.49;43.44;98103.66;5070460;28;19912;-78
2024/02/10 10:45:36;;;;;;;;;;;;;;;14.40;44.05;98093.41;5072055;28;20384;-79
2024/02/10 10:48:02;;;;;;;;;;;;;;;14.23;44.48;98095.81;5062928;28;19955;-79
2024/02/10 10:50:28;;;;;;;;;;;;;;;14.57;44.41;98104.81;5050316;28;19920;-79
2024/02/10 10:52:58;;;;;;;;;;;;;;;14.89;45.13;98105.91;5050256;28;19949;-78
2024/02/10 10:55:27;;;;;;;;;;;;;;;15.42;42.54;98095.38;5070453;28;20023;-79
2024/02/10 10:57:54;;;;;;;;;;;;;;;15.52;41.64;98092.44;5070213;28;19917;-78
2024/02/10 11:00:24;;;;;;;;;;;;;;;15.60;41.29;98094.38;5071802;28;19909;-79
2024/02/10 11:02:52;;;;;;;;;;;;;;;15.96;41.54;98090.31;5070362;28;20455;-78
2024/02/10 11:05:18;;;;;;;;;;;;;;;15.98;40.37;98085.00;5070428;28;19908;-79
2024/02/10 11:07:48;;;;;;;;;;;;;;;15.64;41.59;98085.81;5071558;28;20383;-79
2024/02/10 11:10:18;;;;;;;;;;;;;;;15.45;41.85;98086.03;5071144;28;19912;-78
2024/02/10 11:12:43;;;;;;;;;;;;;;;15.47;42.67;98082.78;5070070;28;20006;-79
2024/02/10 11:15:18;;;;;;;;;;;;;;;15.39;42.79;98081.63;5070237;28;19959;-78
2024/02/10 11:17:43;;;;;;;;;;;;;;;15.43;41.94;98079.44;5071605;28;19966;-78
2024/02/10 11:20:11;;;;;;;;;;;;;;;15.84;41.68;98077.47;5070488;28;19913;-79
2024/02/10 11:22:45;;;;;;;;;;;;;;;15.99;40.78;98058.66;5070027;28;19950;-79
2024/02/10 11:25:12;;;;;;;;;;;;;;;15.84;41.30;98055.97;5071571;28;19908;-78
2024/02/10 11:27:41;;;;;;;;;;;;;;;15.24;41.97;98059.41;5070016;28;20429;-78
2024/02/10 11:30:06;;;;;;;;;;;;;;;15.43;41.54;98065.50;5065242;28;20292;-78
2024/02/10 11:32:32;;;;;;;;;;;;;;;15.31;41.57;98058.25;5071463;28;19912;-78
2024/02/10 11:34:57;;;;;;;;;;;;;;;15.38;42.12;98066.16;5053085;28;20011;-79
2024/02/10 11:37:25;;;;;;;;;;;;;;;15.57;41.72;98055.59;5071505;28;20007;-78
2024/02/10 11:39:51;;;;;;;;;;;;;;;15.70;41.45;98048.44;5069790;28;19999;-78
2024/02/10 11:42:19;;;;;;;;;;;;;;;15.49;40.57;98039.25;5071251;28;20484;-80
2024/02/10 11:44:46;;;;;;;;;;;;;;;15.50;40.89;98037.25;5070237;28;19947;-79
2024/02/10 11:47:11;;;;;;;;;;;;;;;15.45;40.93;98029.59;5070242;28;20434;-79
2024/02/10 11:49:39;;;;;;;;;;;;;;;15.08;41.73;98041.19;5071401;28;19908;-79
2024/02/10 11:52:10;;;;;;;;;;;;;;;15.17;42.05;98050.69;5071389;28;19908;-77